Time;durP1;ratioP1;P1;durP2;ratioP2;P2;SDS_P1;SDS_P2;PMS_P1;PMS_P2;Temp;Humidity;BMP_temperature;BMP_pressure;BME280_temperature;BME280_humidity;BME280_pressure;Samples;Min_cycle;Max_cycle;Signal;HPM_P1;HPM_P2
2022/10/28 00:01:09;;;;;;;19.58;7.72;;;18.20;68.10;;;;;;5097227;28;20377;-74
2022/10/28 00:03:40;;;;;;;16.60;7.70;;;18.20;67.10;;;;;;5096378;28;20754;-74
2022/10/28 00:06:11;;;;;;;22.20;8.20;;;18.30;66.30;;;;;;5097113;28;20370;-73
2022/10/28 00:08:37;;;;;;;23.65;8.80;;;18.30;66.10;;;;;;5097646;28;20402;-75
2022/10/28 00:11:11;;;;;;;24.13;8.60;;;18.30;66.70;;;;;;5097320;28;20386;-74
2022/10/28 00:13:38;;;;;;;18.27;7.60;;;18.30;66.10;;;;;;5098403;28;20409;-73
2022/10/28 00:16:19;;;;;;;21.83;7.43;;;18.30;65.40;;;;;;5098509;28;20378;-75
2022/10/28 00:18:45;;;;;;;21.00;8.50;;;18.30;65.30;;;;;;5110637;28;20386;-73
2022/10/28 00:21:14;;;;;;;16.10;7.77;;;18.30;64.80;;;;;;5115536;28;20377;-72
2022/10/28 00:23:39;;;;;;;16.35;7.10;;;18.30;64.50;;;;;;5095649;28;20389;-74
2022/10/28 00:26:09;;;;;;;17.02;7.45;;;18.30;64.00;;;;;;5096820;28;20374;-74
2022/10/28 00:28:40;;;;;;;24.25;8.27;;;18.30;64.80;;;;;;5096156;28;20402;-76
2022/10/28 00:31:07;;;;;;;21.83;8.00;;;18.30;63.90;;;;;;5095651;28;20404;-75
2022/10/28 00:33:33;;;;;;;18.25;7.85;;;18.20;63.80;;;;;;5096733;28;20378;-76
2022/10/28 00:36:20;;;;;;;16.10;7.40;;;18.30;63.80;;;;;;5098527;28;20778;-73
2022/10/28 00:38:48;;;;;;;18.90;7.63;;;18.20;63.50;;;;;;5096543;28;20390;-74
2022/10/28 00:41:17;;;;;;;18.00;8.30;;;18.20;63.70;;;;;;5096970;28;20390;-75
2022/10/28 00:43:46;;;;;;;20.08;7.30;;;18.20;63.70;;;;;;5079129;28;20386;-75
2022/10/28 00:46:42;;;;;;;19.13;7.67;;;18.30;62.60;;;;;;5097675;28;20382;-73
2022/10/28 00:49:30;;;;;;;22.10;7.00;;;18.30;62.60;;;;;;5094480;28;20746;-73
2022/10/28 00:52:03;;;;;;;17.93;7.17;;;18.30;61.70;;;;;;5094521;28;20810;-74
2022/10/28 00:54:29;;;;;;;21.33;7.13;;;18.40;61.40;;;;;;5097979;28;20374;-74
2022/10/28 00:56:58;;;;;;;17.60;7.83;;;18.30;61.70;;;;;;5097256;28;20563;-75
2022/10/28 00:59:33;;;;;;;17.42;7.40;;;18.20;61.70;;;;;;5096569;28;20380;-75
2022/10/28 01:02:00;;;;;;;23.13;7.45;;;18.20;62.00;;;;;;5096980;28;20424;-73
2022/10/28 01:04:26;;;;;;;14.32;7.30;;;18.30;61.20;;;;;;5097912;28;20424;-74
2022/10/28 01:06:51;;;;;;;16.90;6.88;;;18.30;60.90;;;;;;5096446;28;20862;-73
2022/10/28 01:09:17;;;;;;;19.10;7.33;;;18.30;60.60;;;;;;5095160;28;20462;-72
2022/10/28 01:12:06;;;;;;;17.88;6.80;;;18.30;59.80;;;;;;5096827;28;20412;-75
2022/10/28 01:14:44;;;;;;;21.67;7.68;;;18.40;59.70;;;;;;5097714;28;20374;-75
2022/10/28 01:17:35;;;;;;;17.70;7.05;;;18.40;59.70;;;;;;5098038;28;20408;-74
2022/10/28 01:20:03;;;;;;;18.67;6.88;;;18.40;58.90;;;;;;5098157;28;20869;-74
2022/10/28 01:22:41;;;;;;;19.75;7.78;;;18.40;58.70;;;;;;5097402;28;20874;-73
2022/10/28 01:25:39;;;;;;;23.25;6.75;;;18.40;58.70;;;;;;5094938;28;20385;-73
2022/10/28 01:28:15;;;;;;;20.45;7.38;;;18.40;58.30;;;;;;5052475;28;20382;-74
2022/10/28 01:31:14;;;;;;;16.30;7.05;;;18.40;58.50;;;;;;5095627;28;20378;-74
2022/10/28 01:34:10;;;;;;;13.48;6.93;;;18.50;58.00;;;;;;5096922;28;20921;-72
2022/10/28 01:36:54;;;;;;;22.48;7.28;;;18.50;57.70;;;;;;5094063;28;20382;-72
2022/10/28 01:39:32;;;;;;;25.15;7.72;;;18.40;58.00;;;;;;5093848;28;20435;-72
2022/10/28 01:42:25;;;;;;;15.38;5.90;;;18.40;58.00;;;;;;5093588;28;20386;-72
2022/10/28 01:45:12;;;;;;;15.52;6.60;;;18.40;58.00;;;;;;5097044;28;20383;-73
2022/10/28 01:48:03;;;;;;;19.60;6.80;;;18.30;58.80;;;;;;5096680;28;20441;-73
2022/10/28 01:50:47;;;;;;;14.15;6.50;;;18.30;58.30;;;;;;5081872;28;20406;-73
2022/10/28 01:53:18;;;;;;;14.88;6.85;;;18.40;57.60;;;;;;5094955;28;20443;-73
2022/10/28 01:55:47;;;;;;;20.80;7.40;;;18.30;58.00;;;;;;5093193;28;20386;-73
2022/10/28 01:58:18;;;;;;;15.02;6.30;;;18.20;58.30;;;;;;5093097;28;20379;-73
2022/10/28 02:00:45;;;;;;;21.42;7.40;;;18.20;59.00;;;;;;5074831;28;20374;-73
2022/10/28 02:03:10;;;;;;;18.65;7.47;;;18.10;59.70;;;;;;5092769;28;20512;-73
2022/10/28 02:05:52;;;;;;;20.17;7.47;;;18.10;59.50;;;;;;5092194;28;20891;-73
2022/10/28 02:08:18;;;;;;;20.80;8.17;;;18.00;59.90;;;;;;5074714;28;20398;-73
2022/10/28 02:11:12;;;;;;;20.57;6.90;;;17.90;60.70;;;;;;5074593;28;20390;-73
2022/10/28 02:14:04;;;;;;;19.60;7.30;;;17.80;62.00;;;;;;5083561;28;20478;-73
2022/10/28 02:16:49;;;;;;;23.60;8.13;;;17.70;63.20;;;;;;5054579;28;20430;-73
2022/10/28 02:19:31;;;;;;;22.00;7.20;;;17.70;63.70;;;;;;5093852;28;20386;-73
2022/10/28 02:22:09;;;;;;;18.00;6.88;;;17.60;64.10;;;;;;5093383;28;20860;-73
2022/10/28 02:24:48;;;;;;;16.83;7.10;;;17.60;63.80;;;;;;5077252;28;20386;-73
2022/10/28 02:27:35;;;;;;;21.42;7.68;;;17.60;64.60;;;;;;5102568;28;20392;-73
2022/10/28 02:30:07;;;;;;;21.30;7.55;;;17.50;65.40;;;;;;5102069;28;20406;-73
2022/10/28 02:32:41;;;;;;;18.40;6.70;;;17.50;65.70;;;;;;5098618;28;20746;-73
2022/10/28 02:35:14;;;;;;;21.70;7.53;;;17.50;66.20;;;;;;5092986;28;20746;-72
2022/10/28 02:37:42;;;;;;;19.00;8.07;;;17.40;67.20;;;;;;5093029;28;20721;-72
2022/10/28 02:40:17;;;;;;;20.15;7.80;;;17.30;68.10;;;;;;5092765;28;20382;-72
2022/10/28 02:42:48;;;;;;;18.97;7.73;;;17.40;66.50;;;;;;5092733;28;20760;-72
2022/10/28 02:45:18;;;;;;;20.55;8.25;;;17.40;66.70;;;;;;5093093;28;20464;-72
2022/10/28 02:47:50;;;;;;;20.30;6.90;;;17.50;65.80;;;;;;5094991;28;20390;-72
2022/10/28 02:50:20;;;;;;;25.10;7.85;;;17.40;66.20;;;;;;5103414;28;20390;-72
2022/10/28 02:52:49;;;;;;;21.08;7.30;;;17.30;67.80;;;;;;5112924;28;20410;-74
2022/10/28 02:55:14;;;;;;;18.30;7.40;;;17.30;67.20;;;;;;5114721;28;20386;-74
2022/10/28 02:57:47;;;;;;;18.65;7.75;;;17.30;68.00;;;;;;5100873;28;20390;-72
2022/10/28 03:00:18;;;;;;;23.15;7.65;;;17.30;68.30;;;;;;5091910;28;20378;-73
2022/10/28 03:02:44;;;;;;;22.07;6.80;;;17.20;68.60;;;;;;5091646;28;20381;-73
2022/10/28 03:05:10;;;;;;;17.87;7.57;;;17.20;68.30;;;;;;5091809;28;20889;-73
2022/10/28 03:07:35;;;;;;;18.33;6.70;;;17.20;68.50;;;;;;5091670;28;20378;-72
2022/10/28 03:10:01;;;;;;;15.77;6.90;;;17.20;68.70;;;;;;5091463;28;20878;-72
2022/10/28 03:12:26;;;;;;;19.40;7.30;;;17.10;70.00;;;;;;5091408;28;20435;-73
2022/10/28 03:14:52;;;;;;;18.63;6.90;;;17.10;70.20;;;;;;5091327;28;20869;-73
2022/10/28 03:17:17;;;;;;;17.42;7.28;;;17.10;70.00;;;;;;5091866;28;20382;-73
2022/10/28 03:19:43;;;;;;;18.07;6.97;;;17.10;70.30;;;;;;5091619;28;20418;-72
2022/10/28 03:22:08;;;;;;;24.53;7.47;;;17.10;70.50;;;;;;5073509;28;20392;-73
2022/10/28 03:24:34;;;;;;;18.33;6.80;;;17.10;70.70;;;;;;5073409;28;20755;-72
2022/10/28 03:26:59;;;;;;;20.10;7.70;;;17.00;70.80;;;;;;5091482;28;20386;-73
2022/10/28 03:29:25;;;;;;;26.63;7.30;;;16.90;71.70;;;;;;5092476;28;20401;-72
2022/10/28 03:31:50;;;;;;;23.13;7.95;;;16.90;72.60;;;;;;5091061;28;20381;-74
2022/10/28 03:34:16;;;;;;;17.03;8.00;;;16.90;73.20;;;;;;5091644;28;20397;-72
2022/10/28 03:36:42;;;;;;;21.52;8.02;;;16.90;73.70;;;;;;5091451;28;20754;-73
2022/10/28 03:39:07;;;;;;;22.65;7.85;;;16.90;72.90;;;;;;5091701;28;20446;-72
2022/10/28 03:41:33;;;;;;;20.57;7.63;;;16.80;73.20;;;;;;5091225;28;20386;-73
2022/10/28 03:43:58;;;;;;;26.50;8.27;;;16.80;73.60;;;;;;5091109;28;20713;-73
2022/10/28 03:46:24;;;;;;;22.95;7.95;;;16.80;73.80;;;;;;5091177;28;20393;-73
2022/10/28 03:48:49;;;;;;;21.20;7.80;;;16.90;73.30;;;;;;5091178;28;20416;-72
2022/10/28 03:51:15;;;;;;;23.93;7.73;;;16.80;73.50;;;;;;5090784;28;20421;-74
2022/10/28 03:53:40;;;;;;;20.48;7.40;;;16.80;73.80;;;;;;5091033;28;20377;-74
2022/10/28 03:56:06;;;;;;;19.85;7.80;;;16.90;72.10;;;;;;5090961;28;20789;-71
2022/10/28 03:58:32;;;;;;;19.33;7.83;;;16.90;72.60;;;;;;5072975;28;20386;-72
2022/10/28 04:00:57;;;;;;;18.93;7.70;;;16.90;72.30;;;;;;5090825;28;20381;-74
2022/10/28 04:03:24;;;;;;;20.30;7.65;;;16.90;72.60;;;;;;5091079;28;20386;-72
2022/10/28 04:05:50;;;;;;;26.27;8.10;;;16.80;73.90;;;;;;5090964;28;20389;-73
2022/10/28 04:08:17;;;;;;;21.50;7.78;;;16.70;74.10;;;;;;5091250;28;20406;-74
2022/10/28 04:10:43;;;;;;;20.75;7.32;;;16.70;74.40;;;;;;5091158;28;20386;-72
2022/10/28 04:13:09;;;;;;;23.85;8.05;;;16.70;74.40;;;;;;5090908;28;20920;-72
2022/10/28 04:15:35;;;;;;;19.57;8.17;;;16.60;75.60;;;;;;5091065;28;20382;-72
2022/10/28 04:18:01;;;;;;;19.57;8.00;;;16.60;75.90;;;;;;5091331;28;20410;-74
2022/10/28 04:20:26;;;;;;;22.00;7.30;;;16.70;74.20;;;;;;5090936;28;20889;-73
2022/10/28 04:22:53;;;;;;;20.20;7.90;;;16.70;74.20;;;;;;5090650;28;20393;-74
2022/10/28 04:25:19;;;;;;;19.75;7.65;;;16.70;74.30;;;;;;5091248;28;20378;-73
2022/10/28 04:27:45;;;;;;;21.45;7.50;;;16.70;74.30;;;;;;5091989;28;20392;-73
2022/10/28 04:30:11;;;;;;;32.75;8.20;;;16.70;73.70;;;;;;5094737;28;20406;-72
2022/10/28 04:32:38;;;;;;;22.85;7.85;;;16.80;73.50;;;;;;5094588;28;20370;-72
2022/10/28 04:35:04;;;;;;;15.70;7.13;;;16.70;73.30;;;;;;5094821;28;20382;-73
2022/10/28 04:37:30;;;;;;;21.58;8.30;;;16.70;73.00;;;;;;5094896;28;20382;-72
2022/10/28 04:39:55;;;;;;;19.95;8.10;;;16.70;73.60;;;;;;5095761;28;20381;-72
2022/10/28 04:42:22;;;;;;;17.37;8.27;;;16.70;74.30;;;;;;5098279;28;20386;-72
2022/10/28 04:44:48;;;;;;;18.27;8.00;;;16.60;74.90;;;;;;5102080;28;20824;-73
2022/10/28 04:47:13;;;;;;;18.50;7.47;;;16.60;75.00;;;;;;5100796;28;20378;-73
2022/10/28 04:49:39;;;;;;;21.38;7.90;;;16.70;74.20;;;;;;5099132;28;20409;-74
2022/10/28 04:52:04;;;;;;;23.57;8.30;;;16.70;73.50;;;;;;5098485;28;20394;-73
2022/10/28 04:54:30;;;;;;;20.60;7.80;;;16.80;72.50;;;;;;5096030;28;20374;-72
2022/10/28 04:56:55;;;;;;;22.23;7.63;;;16.80;73.30;;;;;;5095271;28;20457;-72
2022/10/28 04:59:21;;;;;;;28.52;7.93;;;16.80;72.30;;;;;;5078582;28;20472;-74
2022/10/28 05:01:46;;;;;;;19.43;8.10;;;16.80;72.00;;;;;;5095377;28;20474;-73
2022/10/28 05:04:12;;;;;;;24.30;8.48;;;16.90;71.80;;;;;;5095515;28;20431;-73
2022/10/28 05:06:38;;;;;;;23.80;7.40;;;16.80;72.50;;;;;;5094633;28;20392;-72
2022/10/28 05:09:03;;;;;;;22.87;7.60;;;16.80;72.40;;;;;;5094384;28;20498;-73
2022/10/28 05:11:29;;;;;;;18.00;7.67;;;16.80;72.60;;;;;;5075607;28;20386;-71
2022/10/28 05:13:54;;;;;;;18.75;7.65;;;16.80;73.40;;;;;;5094374;28;20377;-73
2022/10/28 05:16:20;;;;;;;20.97;7.40;;;16.80;72.40;;;;;;5094169;28;20393;-73
2022/10/28 05:18:46;;;;;;;19.93;7.60;;;16.90;71.80;;;;;;5093768;28;20413;-73
2022/10/28 05:21:12;;;;;;;19.30;8.00;;;16.90;71.50;;;;;;5093624;28;20393;-71
2022/10/28 05:23:37;;;;;;;18.30;7.20;;;16.90;71.70;;;;;;5093700;28;20385;-73
2022/10/28 05:26:03;;;;;;;20.35;7.65;;;16.90;71.50;;;;;;5093646;28;20382;-73
2022/10/28 05:28:28;;;;;;;29.75;7.90;;;16.90;70.80;;;;;;5093617;28;20420;-73
2022/10/28 05:30:54;;;;;;;22.60;8.40;;;17.00;69.90;;;;;;5093537;28;20871;-75
2022/10/28 05:33:19;;;;;;;16.42;6.65;;;17.00;70.40;;;;;;5093787;28;20386;-74
2022/10/28 05:35:45;;;;;;;19.85;7.70;;;17.00;70.40;;;;;;5075918;28;20486;-72
2022/10/28 05:38:11;;;;;;;26.00;8.20;;;17.00;70.00;;;;;;5093439;28;20742;-72
2022/10/28 05:40:36;;;;;;;19.20;7.00;;;17.10;69.40;;;;;;5093703;28;20910;-72
2022/10/28 05:43:02;;;;;;;19.20;6.90;;;17.10;67.90;;;;;;5093284;28;20388;-74
2022/10/28 05:45:28;;;;;;;21.67;9.77;;;17.10;67.60;;;;;;5094549;28;20420;-73
2022/10/28 05:47:54;;;;;;;28.88;7.80;;;17.20;67.30;;;;;;5097219;28;20374;-73
2022/10/28 05:50:19;;;;;;;21.42;7.43;;;17.20;67.10;;;;;;5076018;28;20429;-73
2022/10/28 05:52:50;;;;;;;28.58;8.35;;;17.20;67.40;;;;;;5094951;28;20408;-73
2022/10/28 05:55:18;;;;;;;17.02;7.03;;;17.20;67.10;;;;;;5094638;28;20435;-74
2022/10/28 05:57:44;;;;;;;18.58;6.93;;;17.20;66.60;;;;;;5097703;28;20382;-76
2022/10/28 06:00:11;;;;;;;19.33;7.45;;;17.20;66.50;;;;;;5097128;28;20382;-71
2022/10/28 06:02:37;;;;;;;27.50;8.27;;;17.20;67.00;;;;;;5074969;28;20442;-73
2022/10/28 06:05:02;;;;;;;21.33;7.10;;;17.20;67.30;;;;;;5095031;28;20429;-74
2022/10/28 06:07:29;;;;;;;25.50;7.23;;;17.20;66.80;;;;;;5078371;28;20852;-73
2022/10/28 06:09:54;;;;;;;22.02;7.65;;;17.10;66.70;;;;;;5095135;28;20434;-73
2022/10/28 06:12:20;;;;;;;23.03;7.63;;;17.20;67.40;;;;;;5093332;28;20414;-74
2022/10/28 06:14:45;;;;;;;22.27;7.57;;;17.10;68.50;;;;;;5093551;28;20453;-72
2022/10/28 06:17:11;;;;;;;25.77;7.82;;;17.10;68.30;;;;;;5093323;28;20747;-73
2022/10/28 06:19:36;;;;;;;24.17;8.00;;;17.10;68.70;;;;;;5093063;28;20413;-72
2022/10/28 06:22:02;;;;;;;21.63;7.40;;;17.10;68.40;;;;;;5092294;28;20386;-73
2022/10/28 06:24:27;;;;;;;19.10;7.85;;;17.20;67.50;;;;;;5092533;28;20404;-73
2022/10/28 06:26:53;;;;;;;28.40;8.70;;;17.20;66.90;;;;;;5092539;28;20382;-74
2022/10/28 06:29:19;;;;;;;25.27;8.30;;;17.20;66.70;;;;;;5092430;28;20739;-72
2022/10/28 06:31:45;;;;;;;25.15;8.32;;;17.20;66.50;;;;;;5091256;28;20882;-73
2022/10/28 06:34:11;;;;;;;19.80;7.93;;;17.20;66.10;;;;;;5091103;28;20397;-72
2022/10/28 06:36:37;;;;;;;23.27;8.57;;;17.20;66.40;;;;;;5092114;28;20847;-72
2022/10/28 06:39:04;;;;;;;20.85;7.25;;;17.30;66.30;;;;;;5092254;28;20378;-74
2022/10/28 06:41:29;;;;;;;20.35;8.30;;;17.30;65.80;;;;;;5091556;28;20508;-72
2022/10/28 06:43:55;;;;;;;24.03;7.80;;;17.30;66.50;;;;;;5073844;28;20454;-74
2022/10/28 06:46:21;;;;;;;19.47;8.30;;;17.30;65.50;;;;;;5091435;28;20736;-71
2022/10/28 06:48:46;;;;;;;21.05;7.68;;;17.30;65.10;;;;;;5091255;28;20910;-73
2022/10/28 06:51:13;;;;;;;20.50;7.97;;;17.30;65.40;;;;;;5091251;28;20382;-71
2022/10/28 06:53:38;;;;;;;19.05;7.32;;;17.30;65.60;;;;;;5092243;28;20374;-71
2022/10/28 06:56:04;;;;;;;21.50;7.83;;;17.30;65.60;;;;;;5096013;28;20974;-73
2022/10/28 06:58:30;;;;;;;22.45;8.10;;;17.30;65.90;;;;;;5097130;28;20397;-73
2022/10/28 07:00:56;;;;;;;19.38;7.65;;;17.40;64.40;;;;;;5094013;28;20378;-74
2022/10/28 07:03:21;;;;;;;29.53;7.97;;;17.40;64.90;;;;;;5108462;28;20429;-74
2022/10/28 07:05:49;;;;;;;18.30;8.03;;;17.40;64.60;;;;;;5110045;28;20377;-73
2022/10/28 07:08:15;;;;;;;20.95;7.50;;;17.50;64.20;;;;;;5089160;28;20393;-72
2022/10/28 07:10:41;;;;;;;23.67;7.90;;;17.60;63.60;;;;;;5097216;28;20402;-72
2022/10/28 07:13:06;;;;;;;21.70;7.03;;;17.70;62.00;;;;;;5072396;28;20380;-73
2022/10/28 07:15:32;;;;;;;20.83;7.97;;;17.70;61.70;;;;;;5088283;28;20401;-75
2022/10/28 07:17:58;;;;;;;20.15;7.22;;;17.70;61.50;;;;;;5091819;28;20387;-71
2022/10/28 07:20:25;;;;;;;21.02;7.30;;;17.80;61.00;;;;;;5092350;28;20402;-72
2022/10/28 07:22:58;;;;;;;17.95;7.10;;;17.90;59.50;;;;;;5082765;28;20395;-73
2022/10/28 07:25:25;;;;;;;22.45;8.50;;;17.90;59.30;;;;;;5072096;28;20961;-72
2022/10/28 07:27:50;;;;;;;23.50;8.38;;;18.10;58.40;;;;;;5071950;28;20396;-73
2022/10/28 07:30:16;;;;;;;18.97;7.70;;;18.10;57.80;;;;;;5072322;28;20461;-72
2022/10/28 07:32:41;;;;;;;24.83;8.40;;;18.20;56.90;;;;;;5071957;28;20392;-75
2022/10/28 07:35:07;;;;;;;21.85;7.60;;;18.20;56.90;;;;;;5085447;28;20417;-73
2022/10/28 07:37:33;;;;;;;20.95;8.32;;;18.30;56.30;;;;;;5084103;28;20399;-75
2022/10/28 07:39:58;;;;;;;20.63;7.18;;;18.40;55.70;;;;;;5072572;28;20409;-76
2022/10/28 07:42:24;;;;;;;23.93;8.17;;;18.40;54.80;;;;;;5084191;28;20392;-73
2022/10/28 07:44:49;;;;;;;24.17;7.72;;;18.40;54.70;;;;;;5053159;28;20395;-71
2022/10/28 07:47:16;;;;;;;30.67;8.70;;;18.50;53.40;;;;;;5088779;28;20712;-74
2022/10/28 07:49:42;;;;;;;20.55;7.43;;;18.60;53.60;;;;;;5093241;28;20398;-73
2022/10/28 07:52:10;;;;;;;18.10;7.13;;;18.60;53.30;;;;;;5088408;28;20740;-71
2022/10/28 07:54:35;;;;;;;19.45;7.10;;;18.60;52.90;;;;;;5089625;28;20871;-72
2022/10/28 07:57:01;;;;;;;21.23;8.00;;;18.70;52.10;;;;;;5088991;28;20413;-72
2022/10/28 07:59:26;;;;;;;70.23;11.60;;;18.80;52.20;;;;;;5088373;28;20484;-71
2022/10/28 08:01:52;;;;;;;25.35;7.80;;;18.90;51.90;;;;;;5089745;28;20391;-72
2022/10/28 08:04:18;;;;;;;23.27;8.00;;;19.20;49.50;;;;;;5072320;28;20437;-72
2022/10/28 08:06:44;;;;;;;29.02;7.55;;;19.30;48.90;;;;;;5093086;28;20397;-74
2022/10/28 08:09:09;;;;;;;23.77;7.80;;;19.30;48.30;;;;;;5093272;28;20401;-75
2022/10/28 08:11:35;;;;;;;24.27;6.87;;;19.30;47.60;;;;;;5091250;28;20396;-73
2022/10/28 08:14:01;;;;;;;26.10;7.28;;;19.50;46.50;;;;;;5087699;28;20728;-71
2022/10/28 08:16:27;;;;;;;27.00;7.00;;;19.40;46.90;;;;;;5094069;28;20404;-71
2022/10/28 08:18:55;;;;;;;27.27;8.70;;;19.40;46.90;;;;;;5094805;28;20374;-72
2022/10/28 08:21:21;;;;;;;23.70;7.60;;;19.30;47.90;;;;;;5076811;28;20397;-72
2022/10/28 08:23:47;;;;;;;20.27;7.72;;;19.30;47.90;;;;;;5094426;28;21724;-73
2022/10/28 08:26:14;;;;;;;21.85;7.63;;;19.30;48.00;;;;;;5094909;28;20457;-72
2022/10/28 08:28:40;;;;;;;28.42;7.82;;;19.10;48.70;;;;;;5101944;28;20402;-76
2022/10/28 08:31:07;;;;;;;18.48;7.20;;;19.20;48.70;;;;;;5083005;28;20417;-74
2022/10/28 08:33:37;;;;;;;23.93;7.93;;;19.20;48.20;;;;;;5100384;28;20388;-72
2022/10/28 08:36:02;;;;;;;21.08;8.18;;;19.20;48.20;;;;;;5077564;28;20397;-72
2022/10/28 08:38:28;;;;;;;22.73;7.25;;;19.20;48.90;;;;;;5095256;28;20754;-73
2022/10/28 08:41:31;;;;;;;20.33;7.10;;;19.20;48.30;;;;;;5076430;28;20439;-72
2022/10/28 08:44:22;;;;;;;26.83;8.17;;;19.40;48.30;;;;;;5094190;28;20401;-73
2022/10/28 08:47:13;;;;;;;28.15;7.20;;;19.50;46.80;;;;;;5083965;28;20446;-70
2022/10/28 08:49:40;;;;;;;26.20;8.65;;;19.70;46.40;;;;;;5089428;28;20740;-72
2022/10/28 08:52:27;;;;;;;24.58;8.00;;;19.70;45.90;;;;;;5110590;23;20475;-74
2022/10/28 08:55:14;;;;;;;21.37;7.00;;;19.90;44.30;;;;;;5099460;28;20402;-74
2022/10/28 08:57:47;;;;;;;21.75;7.90;;;20.00;44.10;;;;;;5077698;28;20463;-74
2022/10/28 09:00:28;;;;;;;21.85;6.90;;;20.10;43.80;;;;;;5084864;28;20927;-73
2022/10/28 09:03:13;;;;;;;22.05;7.82;;;20.20;42.80;;;;;;5095313;28;20421;-73
2022/10/28 09:05:44;;;;;;;18.52;5.70;;;20.20;42.40;;;;;;5095725;28;20381;-76
2022/10/28 09:08:21;;;;;;;25.70;8.00;;;20.30;41.00;;;;;;5095222;28;20720;-74
2022/10/28 09:10:58;;;;;;;19.38;6.80;;;20.50;41.30;;;;;;5094607;28;20443;-73
2022/10/28 09:13:30;;;;;;;22.00;7.30;;;20.60;39.60;;;;;;5079056;28;20750;-73
2022/10/28 09:16:14;;;;;;;24.60;6.68;;;20.70;40.00;;;;;;5098638;28;20820;-75
2022/10/28 09:18:49;;;;;;;32.17;8.15;;;20.80;39.30;;;;;;5096999;28;20390;-73
2022/10/28 09:21:24;;;;;;;27.15;7.28;;;20.90;38.40;;;;;;5094295;28;20390;-73
2022/10/28 09:23:58;;;;;;;24.52;7.60;;;21.00;37.20;;;;;;5094140;28;20386;-72
2022/10/28 09:27:05;;;;;;;26.92;6.90;;;21.00;37.00;;;;;;5094449;28;20391;-72
2022/10/28 09:29:38;;;;;;;19.88;7.63;;;21.10;37.20;;;;;;5094163;28;20874;-73
2022/10/28 09:32:42;;;;;;;19.30;6.10;;;21.20;37.20;;;;;;5094534;28;20735;-73
2022/10/28 09:35:13;;;;;;;26.33;7.32;;;21.50;35.50;;;;;;5072583;28;20789;-73
2022/10/28 09:37:51;;;;;;;18.42;6.78;;;21.60;35.00;;;;;;5076408;28;20386;-73
2022/10/28 09:40:20;;;;;;;26.58;6.50;;;21.50;35.20;;;;;;5094916;28;20397;-74
2022/10/28 09:43:01;;;;;;;15.13;7.00;;;21.60;34.80;;;;;;5094312;28;20384;-75
2022/10/28 09:45:30;;;;;;;18.90;6.57;;;21.60;34.40;;;;;;5094029;28;20886;-73
2022/10/28 09:48:10;;;;;;;19.70;7.68;;;21.60;34.40;;;;;;5093562;28;20393;-73
2022/10/28 09:50:35;;;;;;;22.85;7.45;;;21.60;34.80;;;;;;5093249;28;20389;-74
2022/10/28 09:53:08;;;;;;;21.10;7.10;;;21.60;34.90;;;;;;5093851;28;20405;-73
2022/10/28 09:55:34;;;;;;;20.88;6.70;;;21.60;35.30;;;;;;5093617;28;20381;-74
2022/10/28 09:58:02;;;;;;;23.08;7.20;;;21.80;34.90;;;;;;5093476;28;20780;-74
2022/10/28 10:00:28;;;;;;;21.27;7.45;;;21.90;34.30;;;;;;5093369;28;20888;-74
2022/10/28 10:02:58;;;;;;;21.60;7.40;;;21.90;34.30;;;;;;5092926;28;20448;-73
2022/10/28 10:05:25;;;;;;;20.35;7.22;;;22.10;33.90;;;;;;5074935;28;20871;-74
2022/10/28 10:07:58;;;;;;;25.15;7.40;;;22.20;33.40;;;;;;5093301;28;20417;-74
2022/10/28 10:10:27;;;;;;;30.50;7.50;;;22.20;32.20;;;;;;5075039;28;20402;-74
2022/10/28 10:12:57;;;;;;;27.65;8.02;;;22.40;31.70;;;;;;5093419;28;20381;-76
2022/10/28 10:15:37;;;;;;;27.52;8.30;;;22.40;32.10;;;;;;5093188;28;20378;-72
2022/10/28 10:18:05;;;;;;;21.30;6.20;;;22.40;31.50;;;;;;5093372;28;20523;-72
2022/10/28 10:21:00;;;;;;;24.15;7.10;;;22.40;31.40;;;;;;5093314;28;20382;-72
2022/10/28 10:23:36;;;;;;;31.02;7.43;;;22.50;31.50;;;;;;5072074;28;20898;-73
2022/10/28 10:26:06;;;;;;;26.58;7.00;;;22.60;31.20;;;;;;5092238;28;20787;-75
2022/10/28 10:28:52;;;;;;;21.35;7.10;;;22.70;30.20;;;;;;5093292;28;20398;-72
2022/10/28 10:31:26;;;;;;;24.30;7.00;;;22.80;30.80;;;;;;5092988;28;20385;-75
2022/10/28 10:33:54;;;;;;;27.92;7.22;;;22.70;30.60;;;;;;5093158;28;20366;-73
2022/10/28 10:36:27;;;;;;;20.30;6.90;;;22.90;30.90;;;;;;5093129;28;20405;-74
2022/10/28 10:38:57;;;;;;;21.95;6.80;;;22.90;29.80;;;;;;5093520;28;21173;-75
2022/10/28 10:41:42;;;;;;;22.00;6.55;;;23.10;29.50;;;;;;5093548;28;20417;-74
2022/10/28 10:44:20;;;;;;;16.70;6.72;;;23.10;29.70;;;;;;5093541;28;20389;-73
2022/10/28 10:46:49;;;;;;;22.45;7.45;;;23.20;29.30;;;;;;5093490;28;20385;-74
2022/10/28 10:49:14;;;;;;;30.10;7.68;;;23.30;29.90;;;;;;5093261;28;20402;-75
2022/10/28 10:52:02;;;;;;;22.77;6.93;;;23.40;29.10;;;;;;5094302;28;20755;-73
2022/10/28 10:54:30;;;;;;;33.67;8.60;;;23.50;28.70;;;;;;5096424;28;20401;-74
2022/10/28 10:57:15;;;;;;;21.08;7.18;;;23.50;28.80;;;;;;5095136;28;20378;-74
2022/10/28 10:59:45;;;;;;;25.58;7.10;;;23.50;28.90;;;;;;5093755;28;20858;-74
2022/10/28 11:02:22;;;;;;;32.00;7.70;;;23.50;28.80;;;;;;5094926;28;20423;-75
2022/10/28 11:04:55;;;;;;;28.77;7.13;;;23.50;27.80;;;;;;5093042;28;20378;-74
2022/10/28 11:07:21;;;;;;;31.85;7.50;;;23.50;27.70;;;;;;5092200;28;20735;-73
2022/10/28 11:09:49;;;;;;;28.92;7.05;;;23.60;28.00;;;;;;5092357;28;20413;-74
2022/10/28 11:12:34;;;;;;;19.58;6.20;;;23.70;27.50;;;;;;5092588;28;20374;-73
2022/10/28 11:15:02;;;;;;;24.90;6.70;;;23.70;27.60;;;;;;5092861;28;20382;-73
2022/10/28 11:17:30;;;;;;;19.93;6.73;;;23.80;27.10;;;;;;5092487;28;20792;-74
2022/10/28 11:19:59;;;;;;;24.90;7.60;;;23.90;27.50;;;;;;5092409;28;20382;-73
2022/10/28 11:22:43;;;;;;;20.20;6.70;;;24.00;27.20;;;;;;5092495;28;20378;-72
2022/10/28 11:25:19;;;;;;;21.58;6.82;;;24.20;26.60;;;;;;5092567;28;20402;-73
2022/10/28 11:28:12;;;;;;;24.95;7.15;;;24.20;26.40;;;;;;5092217;28;20761;-74
2022/10/28 11:30:56;;;;;;;15.95;6.22;;;24.20;26.30;;;;;;5093824;28;20418;-73
2022/10/28 11:33:49;;;;;;;25.20;7.00;;;24.30;26.50;;;;;;5093619;28;20461;-73
2022/10/28 11:36:43;;;;;;;24.10;6.55;;;24.50;26.10;;;;;;5092684;28;20370;-74
2022/10/28 11:39:11;;;;;;;29.88;7.28;;;24.60;25.40;;;;;;5093987;28;20367;-74
2022/10/28 11:42:19;;;;;;;22.10;7.30;;;24.60;25.60;;;;;;5092240;28;20468;-72
2022/10/28 11:45:02;;;;;;;17.67;7.13;;;24.50;25.70;;;;;;5075186;28;20386;-74
2022/10/28 11:47:45;;;;;;;24.48;6.80;;;24.40;26.60;;;;;;5093682;28;20420;-75
2022/10/28 11:50:40;;;;;;;25.33;7.07;;;24.50;26.50;;;;;;5095017;28;20402;-74
2022/10/28 11:53:36;;;;;;;22.80;7.10;;;24.40;26.90;;;;;;5092879;28;20787;-74
2022/10/28 11:56:22;;;;;;;21.50;6.70;;;24.40;26.30;;;;;;5092485;28;20376;-74
2022/10/28 11:58:47;;;;;;;24.95;7.10;;;24.40;26.10;;;;;;5091376;28;20704;-74
2022/10/28 12:01:52;;;;;;;23.60;6.85;;;24.50;26.20;;;;;;5091657;28;20439;-73
2022/10/28 12:04:43;;;;;;;18.73;6.20;;;24.50;26.10;;;;;;5074580;28;20676;-73
2022/10/28 12:07:37;;;;;;;18.50;6.20;;;24.50;26.30;;;;;;5044837;28;20514;-73
2022/10/28 12:10:21;;;;;;;32.20;6.63;;;24.60;25.90;;;;;;5078422;28;20451;-73
2022/10/28 12:12:54;;;;;;;25.92;7.65;;;24.70;25.60;;;;;;5091759;28;20527;-73
2022/10/28 12:15:38;;;;;;;25.70;6.60;;;24.70;26.10;;;;;;5092329;28;20462;-74
2022/10/28 12:18:19;;;;;;;24.10;7.32;;;24.80;25.50;;;;;;5094171;28;20749;-73
2022/10/28 12:20:46;;;;;;;20.85;7.10;;;24.80;25.80;;;;;;5095225;28;20727;-74
2022/10/28 12:23:16;;;;;;;21.90;7.68;;;24.90;25.20;;;;;;5094972;28;20381;-75
2022/10/28 12:25:46;;;;;;;24.70;7.57;;;25.00;24.90;;;;;;5076758;28;20854;-73
2022/10/28 12:28:45;;;;;;;31.65;7.68;;;25.20;24.60;;;;;;5094827;28;20393;-74
2022/10/28 12:31:41;;;;;;;28.52;8.07;;;25.20;24.40;;;;;;5094022;28;20401;-74
2022/10/28 12:34:14;;;;;;;22.75;6.70;;;25.20;24.60;;;;;;5080949;28;20382;-73
2022/10/28 12:36:48;;;;;;;19.85;6.63;;;25.20;24.40;;;;;;5094271;28;20386;-75
2022/10/28 12:39:30;;;;;;;19.15;6.32;;;25.10;24.60;;;;;;5093718;28;20374;-75
2022/10/28 12:42:05;;;;;;;17.50;5.97;;;25.10;24.00;;;;;;5092680;28;20397;-74
2022/10/28 12:44:32;;;;;;;22.58;7.25;;;25.10;24.20;;;;;;5093068;28;20409;-75
2022/10/28 12:47:10;;;;;;;29.02;6.90;;;25.10;24.40;;;;;;5074161;28;20799;-73
2022/10/28 12:50:04;;;;;;;22.75;6.30;;;25.10;25.00;;;;;;5077006;28;20900;-74
2022/10/28 12:52:52;;;;;;;22.85;6.30;;;25.00;24.80;;;;;;5096287;28;20460;-74
2022/10/28 12:55:23;;;;;;;21.90;6.75;;;24.90;25.10;;;;;;5096585;28;20391;-75
2022/10/28 12:57:58;;;;;;;20.92;6.65;;;24.90;25.50;;;;;;5095595;28;20374;-74
2022/10/28 13:00:28;;;;;;;23.90;6.70;;;25.00;25.30;;;;;;5095837;28;20389;-74